Авиационная погода в Витебске

Регион: 
Погода METAR: 
UMII 201500Z 28003MPS 9999 FEW040 13/06 Q1022 NOSIG
Время наблюдения: 
2020-09-20T15:00:00Z
Температура C: 
13.0
Точка росы: 
6.0
Направление ветра: 
280
Скорость ветра (узлы): 
6
Метеорологическая видимость: 
6.21
Условия полета: 
VFR

Найти трансфер

С помощью этой формы Вы можете найти трансфер из аэропорта Авиационная погода в Витебске в город, аэропорт или вокзал: